createdAt,value
2018-07-04T00:00:44.595Z,47.09
2018-07-04T00:03:24.233Z,48.40
2018-07-04T00:06:03.855Z,49.07
2018-07-04T00:08:43.643Z,49.29
2018-07-04T00:11:23.124Z,47.46
2018-07-04T00:14:02.643Z,48.58
2018-07-04T00:16:42.245Z,49.06
2018-07-04T00:19:21.939Z,48.47
2018-07-04T00:22:01.674Z,50.20
2018-07-04T00:24:41.408Z,48.79
2018-07-04T00:27:21.203Z,48.02
2018-07-04T00:30:00.873Z,50.48
2018-07-04T00:32:40.533Z,51.71
2018-07-04T00:35:20.272Z,52.63
2018-07-04T00:37:59.927Z,53.85
2018-07-04T00:40:39.504Z,53.19
2018-07-04T00:43:19.252Z,52.39
2018-07-04T00:45:58.960Z,53.40
2018-07-04T00:48:38.691Z,52.66
2018-07-04T00:51:18.328Z,51.18
2018-07-04T00:53:57.988Z,52.44
2018-07-04T00:56:37.615Z,52.22
2018-07-04T00:59:17.152Z,51.26
2018-07-04T01:01:56.894Z,51.78
2018-07-04T01:04:36.503Z,52.49
2018-07-04T01:07:16.029Z,51.86
2018-07-04T01:09:55.721Z,51.01
2018-07-04T01:12:35.401Z,51.49
2018-07-04T01:15:15.000Z,52.04
2018-07-04T01:17:54.727Z,52.91
2018-07-04T01:21:39.499Z,52.17
2018-07-04T01:24:19.054Z,53.70
2018-07-04T01:26:58.701Z,52.73
2018-07-04T01:29:38.370Z,53.71
2018-07-04T01:32:18.056Z,52.71
2018-07-04T01:34:57.639Z,53.12
2018-07-04T01:37:37.115Z,52.11
2018-07-04T01:40:17.175Z,52.70
2018-07-04T01:42:56.850Z,51.17
2018-07-04T01:45:36.533Z,53.72
2018-07-04T01:48:16.384Z,53.63
2018-07-04T01:50:56.032Z,54.31
2018-07-04T01:53:35.729Z,55.44
2018-07-04T01:56:15.500Z,55.14
2018-07-04T01:58:55.241Z,55.92
2018-07-04T02:04:07.897Z,56.80
2018-07-04T02:06:47.604Z,56.38
2018-07-04T02:09:27.160Z,56.80
2018-07-04T02:12:06.786Z,57.43
2018-07-04T02:14:46.341Z,58.81
2018-07-04T02:17:25.954Z,57.80
2018-07-04T02:20:05.610Z,58.13
2018-07-04T02:22:45.250Z,59.13
2018-07-04T02:25:24.922Z,58.86
2018-07-04T02:28:04.640Z,57.82
2018-07-04T02:30:44.212Z,58.00
2018-07-04T02:33:23.896Z,58.57
2018-07-04T02:36:03.473Z,58.71
2018-07-04T02:38:43.068Z,58.11
2018-07-04T02:41:22.609Z,58.08
2018-07-04T02:44:02.214Z,58.64
2018-07-04T02:46:41.902Z,58.54
2018-07-04T02:49:22.221Z,58.17
2018-07-04T02:52:01.683Z,59.29
2018-07-04T02:54:41.463Z,58.38
2018-07-04T02:57:21.020Z,59.13
2018-07-04T03:00:00.682Z,60.27
2018-07-04T03:02:40.314Z,60.61
2018-07-04T03:05:19.976Z,60.60
2018-07-04T03:07:59.739Z,62.20
2018-07-04T03:10:39.112Z,61.99
2018-07-04T03:13:18.762Z,62.02
2018-07-04T03:15:58.357Z,62.44
2018-07-04T03:18:38.010Z,62.15
2018-07-04T03:21:17.556Z,62.38
2018-07-04T03:23:57.088Z,61.98
2018-07-04T03:26:36.702Z,61.86
2018-07-04T03:29:16.203Z,62.27
2018-07-04T03:31:55.840Z,62.75
2018-07-04T03:34:35.480Z,62.25
2018-07-04T03:37:15.270Z,62.03
2018-07-04T03:39:55.993Z,62.90
2018-07-04T03:42:35.648Z,63.32
2018-07-04T03:45:15.424Z,63.52
2018-07-04T03:47:55.113Z,63.82
2018-07-04T03:50:34.848Z,63.43
2018-07-04T03:53:14.515Z,64.62
2018-07-04T03:55:53.989Z,63.92
2018-07-04T03:58:33.795Z,64.67
2018-07-04T04:01:13.508Z,65.69
2018-07-04T04:03:53.151Z,65.17
2018-07-04T04:06:32.803Z,64.83
2018-07-04T04:09:12.555Z,65.31
2018-07-04T04:11:52.207Z,65.04
2018-07-04T04:14:31.848Z,65.63
2018-07-04T04:17:11.485Z,65.55
2018-07-04T04:19:51.129Z,66.10
2018-07-04T04:22:30.813Z,66.08
2018-07-04T04:25:10.532Z,66.05
2018-07-04T04:27:50.199Z,65.94
2018-07-04T04:30:29.915Z,65.65
2018-07-04T04:33:09.500Z,65.62
2018-07-04T04:35:49.216Z,65.21
2018-07-04T04:38:28.947Z,65.81
2018-07-04T04:41:08.456Z,65.67
2018-07-04T04:43:47.967Z,65.09
2018-07-04T04:46:27.511Z,65.41
2018-07-04T04:49:07.206Z,66.03
2018-07-04T04:51:46.913Z,66.15
2018-07-04T04:54:26.520Z,65.84
2018-07-04T04:57:06.224Z,64.91
2018-07-04T04:59:45.971Z,65.82
2018-07-04T05:02:25.636Z,65.60
2018-07-04T05:05:05.345Z,66.05
2018-07-04T05:07:44.968Z,66.59
2018-07-04T05:10:24.529Z,65.89
2018-07-04T05:13:04.531Z,65.71
2018-07-04T05:15:44.324Z,63.54
2018-07-04T05:18:23.842Z,64.81
2018-07-04T05:21:03.575Z,64.55
2018-07-04T05:23:43.351Z,64.56
2018-07-04T05:26:23.083Z,63.99
2018-07-04T05:29:02.709Z,64.77
2018-07-04T05:31:42.492Z,63.79
2018-07-04T05:34:21.976Z,63.24
2018-07-04T05:37:01.521Z,62.82
2018-07-04T05:39:41.044Z,63.79
2018-07-04T05:42:20.682Z,64.70
2018-07-04T05:45:00.404Z,65.45
2018-07-04T05:47:40.290Z,66.22
2018-07-04T05:50:19.989Z,65.57
2018-07-04T05:52:59.717Z,64.66
2018-07-04T05:55:39.260Z,63.77
2018-07-04T05:58:18.996Z,66.20
2018-07-04T06:00:58.629Z,65.69
2018-07-04T06:03:38.266Z,63.78
2018-07-04T06:06:17.891Z,63.88
2018-07-04T06:08:57.641Z,63.25
2018-07-04T06:11:37.299Z,63.07
2018-07-04T06:14:17.105Z,61.15
2018-07-04T06:16:56.669Z,60.90
2018-07-04T06:19:36.360Z,61.25
2018-07-04T06:22:16.021Z,60.93
2018-07-04T06:24:55.688Z,62.02
2018-07-04T06:27:35.428Z,60.45
2018-07-04T06:30:15.152Z,62.39
2018-07-04T06:32:54.632Z,62.22
2018-07-04T06:35:34.332Z,61.71
2018-07-04T06:38:01.589Z,62.27
2018-07-04T06:42:56.049Z,60.33
2018-07-04T06:45:23.279Z,60.36
2018-07-04T06:47:50.979Z,59.30
2018-07-04T06:50:18.250Z,60.43
2018-07-04T06:52:45.441Z,61.21
2018-07-04T06:55:12.627Z,58.83
2018-07-04T06:57:39.862Z,58.87
2018-07-04T07:00:07.053Z,56.93
2018-07-04T07:02:34.253Z,55.25
2018-07-04T07:05:13.809Z,54.70
2018-07-04T07:07:53.572Z,54.05
2018-07-04T07:10:33.185Z,53.61
2018-07-04T07:13:13.055Z,54.33
2018-07-04T07:15:52.712Z,54.31
2018-07-04T07:18:32.230Z,53.59
2018-07-04T07:21:11.777Z,53.85
2018-07-04T07:23:51.288Z,53.03
2018-07-04T07:26:31.133Z,52.17
2018-07-04T07:29:10.842Z,50.43
2018-07-04T07:31:50.569Z,51.00
2018-07-04T07:34:30.401Z,50.28
2018-07-04T07:37:11.089Z,50.20
2018-07-04T07:39:50.631Z,49.56
2018-07-04T07:42:30.264Z,50.47
2018-07-04T07:45:09.982Z,50.10
2018-07-04T07:47:49.742Z,49.21
2018-07-04T07:50:29.444Z,50.29
2018-07-04T07:53:09.122Z,50.62
2018-07-04T07:55:48.827Z,48.58
2018-07-04T07:58:28.445Z,48.36
2018-07-04T08:01:08.134Z,49.09
2018-07-04T08:03:50.120Z,48.34
2018-07-04T08:06:29.786Z,48.34
2018-07-04T08:09:09.559Z,49.02
2018-07-04T08:11:49.384Z,51.86
2018-07-04T08:14:29.084Z,49.85
2018-07-04T08:17:09.800Z,49.53
2018-07-04T08:19:49.517Z,48.62
2018-07-04T08:22:29.233Z,47.98
2018-07-04T08:25:08.891Z,46.48
2018-07-04T08:27:48.505Z,46.45
2018-07-04T08:30:28.310Z,45.61
2018-07-04T08:33:08.022Z,45.73
2018-07-04T08:35:47.801Z,46.60
2018-07-04T08:38:27.465Z,47.79
2018-07-04T08:41:06.993Z,44.90
2018-07-04T08:43:46.568Z,46.28
2018-07-04T08:46:26.886Z,46.83
2018-07-04T08:49:06.373Z,45.06
2018-07-04T08:51:46.590Z,46.40
2018-07-04T08:54:26.097Z,47.24
2018-07-04T08:57:05.808Z,45.54
2018-07-04T08:59:45.571Z,44.51
2018-07-04T09:02:25.260Z,43.62
2018-07-04T09:05:05.026Z,45.57
2018-07-04T09:07:44.789Z,44.66
2018-07-04T09:10:24.792Z,44.01
2018-07-04T09:13:04.526Z,44.45
2018-07-04T09:15:44.271Z,45.38
2018-07-04T09:18:24.002Z,46.98
2018-07-04T09:21:03.374Z,49.36
2018-07-04T09:23:43.009Z,53.26
2018-07-04T09:26:22.716Z,55.91
2018-07-04T09:29:02.203Z,55.62
2018-07-04T09:31:41.889Z,56.67
2018-07-04T09:34:21.595Z,55.49
2018-07-04T09:37:01.313Z,54.45
2018-07-04T09:39:41.124Z,56.51
2018-07-04T09:42:20.741Z,57.65
2018-07-04T09:45:00.444Z,58.65
2018-07-04T09:47:40.071Z,58.23
2018-07-04T09:50:19.669Z,55.92
2018-07-04T09:52:59.382Z,55.38
2018-07-04T09:55:39.091Z,51.44
2018-07-04T09:58:18.637Z,52.53
2018-07-04T10:01:03.773Z,53.06
2018-07-04T10:03:43.331Z,50.54
2018-07-04T10:06:22.984Z,49.90
2018-07-04T10:09:02.766Z,49.39
2018-07-04T10:11:42.584Z,49.98
2018-07-04T10:14:22.274Z,50.44
2018-07-04T10:17:02.000Z,49.70
2018-07-04T10:19:41.675Z,50.21
2018-07-04T10:22:21.289Z,50.35
2018-07-04T10:25:00.928Z,50.84
2018-07-04T10:27:41.322Z,52.08
2018-07-04T10:30:20.831Z,52.33
2018-07-04T10:33:00.475Z,50.72
2018-07-04T10:35:40.140Z,52.07
2018-07-04T10:38:19.889Z,52.88
2018-07-04T10:40:59.515Z,53.20
2018-07-04T10:43:38.996Z,52.24
2018-07-04T10:46:18.920Z,51.77
2018-07-04T10:48:58.553Z,50.89
2018-07-04T10:51:38.392Z,51.25
2018-07-04T10:54:17.920Z,51.60
2018-07-04T10:56:57.442Z,52.14
2018-07-04T10:59:36.916Z,51.03
2018-07-04T11:02:16.618Z,52.00
2018-07-04T11:04:56.202Z,51.05
2018-07-04T11:07:35.896Z,51.62
2018-07-04T11:10:15.512Z,50.92
2018-07-04T11:12:55.273Z,52.38
2018-07-04T11:15:34.919Z,53.33
2018-07-04T11:18:14.569Z,51.72
2018-07-04T11:20:54.336Z,50.61
2018-07-04T11:23:33.992Z,51.62
2018-07-04T11:26:13.628Z,52.17
2018-07-04T11:28:53.380Z,52.14
2018-07-04T11:31:32.904Z,52.56
2018-07-04T11:34:12.501Z,51.40
2018-07-04T11:36:52.067Z,50.55
2018-07-04T11:39:31.799Z,51.32
2018-07-04T11:42:11.517Z,51.20
2018-07-04T11:44:51.213Z,51.80
2018-07-04T11:47:18.441Z,52.17
2018-07-04T11:49:45.644Z,49.44
2018-07-04T11:52:12.844Z,49.86
2018-07-04T11:54:40.129Z,49.34
2018-07-04T11:57:07.374Z,47.66
2018-07-04T11:59:34.532Z,45.98
2018-07-04T12:02:01.761Z,46.21
2018-07-04T12:04:41.284Z,47.03
2018-07-04T12:07:09.708Z,48.35
2018-07-04T12:09:39.050Z,48.46
2018-07-04T12:12:06.287Z,49.45
2018-07-04T12:14:33.651Z,47.67
2018-07-04T12:17:01.040Z,47.75
2018-07-04T12:19:28.449Z,47.53
2018-07-04T12:21:55.656Z,48.17
2018-07-04T12:24:22.857Z,47.96
2018-07-04T12:26:50.129Z,48.43
2018-07-04T12:29:17.346Z,49.63
2018-07-04T12:31:44.604Z,48.53
2018-07-04T12:34:11.786Z,50.09
2018-07-04T12:36:38.993Z,48.94
2018-07-04T12:39:06.233Z,48.88
2018-07-04T12:41:33.487Z,51.12
2018-07-04T12:44:00.708Z,50.06
2018-07-04T12:46:28.244Z,49.90
2018-07-04T12:48:59.588Z,49.64
2018-07-04T12:51:26.800Z,51.61
2018-07-04T12:53:58.158Z,51.63
2018-07-04T12:56:37.880Z,51.53
2018-07-04T12:59:17.541Z,52.41
2018-07-04T13:01:57.081Z,51.76
2018-07-04T13:04:36.690Z,50.15
2018-07-04T13:07:16.321Z,50.70
2018-07-04T13:09:56.027Z,50.47
2018-07-04T13:12:35.751Z,53.60
2018-07-04T13:15:15.423Z,52.85
2018-07-04T13:17:55.155Z,52.77
2018-07-04T13:20:34.776Z,54.05
2018-07-04T13:23:14.410Z,52.16
2018-07-04T13:25:54.216Z,53.04
2018-07-04T13:28:34.008Z,55.36
2018-07-04T13:31:13.598Z,54.38
2018-07-04T13:33:53.345Z,54.62
2018-07-04T13:36:33.064Z,54.99
2018-07-04T13:39:12.769Z,53.54
2018-07-04T13:41:52.546Z,51.73
2018-07-04T13:44:32.280Z,52.85
2018-07-04T13:47:11.756Z,53.41
2018-07-04T13:49:51.487Z,53.44
2018-07-04T13:52:31.193Z,53.64
2018-07-04T13:55:10.825Z,52.41
2018-07-04T13:57:50.555Z,54.02
2018-07-04T14:00:30.231Z,52.76
2018-07-04T14:03:09.932Z,51.70
2018-07-04T14:05:49.682Z,54.77
2018-07-04T14:08:29.459Z,53.38
2018-07-04T14:11:09.246Z,52.07
2018-07-04T14:13:48.908Z,53.37
2018-07-04T14:16:28.613Z,54.60
2018-07-04T14:19:08.248Z,54.63
2018-07-04T14:21:47.864Z,53.64
2018-07-04T14:24:27.617Z,55.34
2018-07-04T14:27:07.341Z,54.04
2018-07-04T14:29:47.021Z,54.54
2018-07-04T14:32:26.720Z,55.41
2018-07-04T14:35:06.452Z,55.18
2018-07-04T14:37:46.090Z,54.90
2018-07-04T14:40:25.760Z,55.75
2018-07-04T14:43:05.459Z,55.19
2018-07-04T14:45:45.136Z,54.34
2018-07-04T14:48:24.789Z,55.39
2018-07-04T14:51:04.500Z,56.00
2018-07-04T14:53:44.218Z,55.55
2018-07-04T14:56:23.908Z,55.16
2018-07-04T14:59:03.537Z,56.92
2018-07-04T15:01:43.182Z,56.16
2018-07-04T15:04:22.904Z,56.77
2018-07-04T15:07:02.690Z,56.81
2018-07-04T15:09:42.385Z,56.58
2018-07-04T15:12:22.009Z,57.04
2018-07-04T15:15:01.671Z,57.14
2018-07-04T15:17:41.296Z,57.76
2018-07-04T15:20:20.896Z,56.32
2018-07-04T15:23:00.524Z,56.37
2018-07-04T15:25:40.157Z,57.54
2018-07-04T15:28:19.794Z,57.89
2018-07-04T15:30:59.428Z,56.60
2018-07-04T15:33:39.037Z,57.52
2018-07-04T15:36:18.656Z,57.11
2018-07-04T15:38:58.224Z,57.46
2018-07-04T15:41:37.888Z,57.75
2018-07-04T15:44:17.646Z,57.60
2018-07-04T15:46:57.345Z,58.18
2018-07-04T15:49:37.019Z,57.72
2018-07-04T15:52:16.690Z,56.88
2018-07-04T15:54:56.344Z,58.19
2018-07-04T15:57:36.191Z,57.47
2018-07-04T16:00:16.799Z,57.08
2018-07-04T16:02:56.363Z,57.67
2018-07-04T16:05:36.021Z,56.86
2018-07-04T16:08:15.868Z,57.91
2018-07-04T16:10:55.555Z,58.23
2018-07-04T16:13:35.236Z,56.70
2018-07-04T16:16:14.816Z,57.85
2018-07-04T16:18:54.504Z,57.50
2018-07-04T16:21:34.460Z,57.78
2018-07-04T16:24:14.017Z,57.79
2018-07-04T16:26:53.785Z,57.73
2018-07-04T16:29:33.493Z,55.95
2018-07-04T16:32:13.118Z,56.92
2018-07-04T16:34:52.775Z,57.68
2018-07-04T16:37:32.529Z,57.33
2018-07-04T16:40:12.082Z,56.42
2018-07-04T16:42:52.348Z,58.93
2018-07-04T16:45:31.862Z,56.95
2018-07-04T16:48:11.478Z,56.70
2018-07-04T16:50:51.243Z,57.73
2018-07-04T16:53:30.869Z,56.75
2018-07-04T16:56:10.583Z,55.78
2018-07-04T16:58:50.260Z,57.06
2018-07-04T17:01:29.996Z,56.77
2018-07-04T17:04:09.879Z,57.10
2018-07-04T17:06:49.629Z,55.61
2018-07-04T17:09:29.312Z,57.21
2018-07-04T17:12:09.024Z,57.44
2018-07-04T17:14:49.029Z,56.62
2018-07-04T17:17:28.933Z,56.19
2018-07-04T17:20:08.525Z,56.28
2018-07-04T17:22:48.349Z,56.02
2018-07-04T17:25:28.041Z,55.54
2018-07-04T17:28:07.729Z,55.59
2018-07-04T17:30:47.311Z,55.47
2018-07-04T17:33:27.588Z,55.88
2018-07-04T17:36:07.172Z,55.25
2018-07-04T17:38:46.773Z,55.48
2018-07-04T17:41:26.457Z,55.01
2018-07-04T17:44:06.101Z,55.96
2018-07-04T17:46:45.824Z,56.02
2018-07-04T17:49:25.422Z,55.94
2018-07-04T17:52:04.982Z,57.85
2018-07-04T17:54:44.701Z,56.97
2018-07-04T17:57:24.618Z,56.56
2018-07-04T18:00:04.056Z,56.82
2018-07-04T18:02:43.940Z,57.73
2018-07-04T18:05:23.441Z,56.65
2018-07-04T18:08:03.865Z,55.92
2018-07-04T18:10:43.496Z,56.26
2018-07-04T18:13:23.247Z,55.25
2018-07-04T18:16:02.925Z,55.22
2018-07-04T18:18:42.598Z,55.24
2018-07-04T18:21:25.412Z,53.83
2018-07-04T18:24:06.305Z,56.48
2018-07-04T18:26:45.973Z,57.58
2018-07-04T18:29:25.577Z,56.30
2018-07-04T18:32:06.098Z,55.39
2018-07-04T18:34:45.625Z,56.54
2018-07-04T18:37:25.670Z,56.44
2018-07-04T18:40:05.160Z,56.42
2018-07-04T18:42:44.791Z,56.20
2018-07-04T18:45:24.336Z,57.16
2018-07-04T18:48:04.079Z,58.00
2018-07-04T18:50:43.652Z,57.59
2018-07-04T18:53:23.405Z,57.83
2018-07-04T18:56:03.104Z,57.28
2018-07-04T18:58:42.874Z,56.48
2018-07-04T19:01:22.654Z,56.51
2018-07-04T19:04:02.431Z,56.70
2018-07-04T19:06:42.033Z,57.32
2018-07-04T19:09:21.792Z,58.04
2018-07-04T19:12:01.502Z,57.28
2018-07-04T19:14:41.231Z,57.58
2018-07-04T19:17:21.032Z,57.95
2018-07-04T19:20:00.713Z,57.59
2018-07-04T19:22:40.336Z,58.53
2018-07-04T19:25:20.034Z,58.25
2018-07-04T19:27:59.753Z,58.77
2018-07-04T19:30:39.400Z,59.15
2018-07-04T19:33:19.146Z,60.24
2018-07-04T19:35:58.783Z,60.65
2018-07-04T19:38:38.315Z,59.97
2018-07-04T19:41:17.958Z,61.25
2018-07-04T19:43:57.714Z,61.46
2018-07-04T19:46:38.275Z,60.96
2018-07-04T19:49:17.734Z,61.27
2018-07-04T19:51:57.658Z,62.36
2018-07-04T19:54:37.332Z,63.24
2018-07-04T19:57:16.886Z,62.59
2018-07-04T19:59:56.456Z,62.93
2018-07-04T20:02:36.181Z,62.84
2018-07-04T20:05:15.824Z,63.25
2018-07-04T20:07:55.373Z,63.78
2018-07-04T20:10:35.141Z,63.79
2018-07-04T20:13:14.880Z,66.57
2018-07-04T20:15:54.675Z,68.18
2018-07-04T20:18:34.428Z,68.42
2018-07-04T20:21:14.004Z,67.76
2018-07-04T20:23:53.789Z,69.01
2018-07-04T20:26:33.469Z,68.61
2018-07-04T20:29:13.158Z,68.98
2018-07-04T20:31:52.782Z,69.18
2018-07-04T20:34:32.518Z,68.70
2018-07-04T20:37:12.277Z,69.62
2018-07-04T20:39:52.086Z,69.67
2018-07-04T20:42:31.764Z,69.60
2018-07-04T20:45:11.336Z,69.58
2018-07-04T20:47:51.087Z,69.85
2018-07-04T20:50:30.691Z,69.72
2018-07-04T20:53:10.460Z,69.00
2018-07-04T20:55:50.358Z,69.35
2018-07-04T20:58:29.876Z,69.52
2018-07-04T21:01:09.442Z,69.75
2018-07-04T21:03:49.151Z,70.13
2018-07-04T21:06:28.904Z,69.58
2018-07-04T21:09:08.580Z,70.29
2018-07-04T21:11:48.157Z,70.40
2018-07-04T21:14:27.957Z,70.28
2018-07-04T21:17:07.554Z,70.23
2018-07-04T21:19:47.248Z,70.37
2018-07-04T21:22:26.844Z,70.62
2018-07-04T21:25:06.344Z,70.03
2018-07-04T21:27:45.885Z,69.78
2018-07-04T21:30:25.634Z,71.15
2018-07-04T21:33:05.470Z,71.06
2018-07-04T21:35:44.920Z,71.11
2018-07-04T21:38:24.664Z,71.37
2018-07-04T21:41:04.298Z,71.12
2018-07-04T21:43:43.801Z,70.87
2018-07-04T21:46:23.465Z,70.83
2018-07-04T21:49:03.175Z,70.75
2018-07-04T21:51:42.811Z,70.54
2018-07-04T21:54:22.500Z,70.50
2018-07-04T21:57:02.286Z,71.19
2018-07-04T21:59:42.192Z,70.86
2018-07-04T22:02:21.947Z,70.43
2018-07-04T22:05:01.473Z,70.48
2018-07-04T22:07:40.979Z,71.05
2018-07-04T22:10:20.684Z,70.32
2018-07-04T22:13:00.385Z,71.81
2018-07-04T22:15:40.125Z,71.79
2018-07-04T22:18:19.768Z,71.35
2018-07-04T22:20:59.637Z,71.87
2018-07-04T22:23:39.352Z,71.44
2018-07-04T22:26:19.041Z,71.80
2018-07-04T22:28:58.591Z,71.13
2018-07-04T22:31:38.157Z,71.59
2018-07-04T22:34:17.796Z,71.87
2018-07-04T22:36:57.425Z,72.07
2018-07-04T22:39:36.974Z,71.87
2018-07-04T22:42:16.697Z,71.78
2018-07-04T22:44:56.342Z,70.80
2018-07-04T22:47:35.952Z,72.37
2018-07-04T22:50:15.628Z,71.36
2018-07-04T22:52:55.203Z,71.37
2018-07-04T22:55:34.861Z,71.30
2018-07-04T22:58:15.422Z,71.52
2018-07-04T23:00:54.908Z,72.48
2018-07-04T23:03:35.342Z,71.69
2018-07-04T23:06:14.884Z,72.57
2018-07-04T23:08:54.351Z,72.58
2018-07-04T23:11:33.902Z,72.28
2018-07-04T23:14:13.486Z,72.97
2018-07-04T23:16:53.010Z,72.25
2018-07-04T23:19:32.620Z,72.91
2018-07-04T23:22:12.276Z,73.11
2018-07-04T23:24:52.041Z,73.33
2018-07-04T23:27:31.685Z,73.56
2018-07-04T23:30:11.392Z,74.08
2018-07-04T23:32:51.013Z,73.69
2018-07-04T23:35:30.749Z,72.65
2018-07-04T23:38:10.393Z,73.23
2018-07-04T23:40:50.145Z,72.77
2018-07-04T23:43:29.848Z,72.27
2018-07-04T23:46:09.401Z,72.84
2018-07-04T23:48:49.082Z,73.33
2018-07-04T23:51:28.929Z,72.64
2018-07-04T23:54:08.588Z,72.72
2018-07-04T23:56:48.205Z,72.57
2018-07-04T23:59:27.947Z,73.14
